createdAt,value
2022-12-17T00:02:46.560Z,97638.50
2022-12-17T00:07:07.707Z,97636.88
2022-12-17T00:11:29.559Z,97637.78
2022-12-17T00:15:50.254Z,97640.34
2022-12-17T00:20:11.111Z,97645.47
2022-12-17T00:24:37.925Z,97651.34
2022-12-17T00:29:00.492Z,97654.84
2022-12-17T00:33:22.053Z,97655.66
2022-12-17T00:37:42.470Z,97658.13
2022-12-17T00:42:03.250Z,97664.09
2022-12-17T00:46:25.293Z,97675.88
2022-12-17T00:50:45.993Z,97685.22
2022-12-17T00:55:06.306Z,97691.28
2022-12-17T00:59:27.436Z,97692.91
2022-12-17T01:03:49.391Z,97693.84
2022-12-17T01:08:10.323Z,97698.78
2022-12-17T01:12:30.795Z,97702.19
2022-12-17T01:16:52.321Z,97706.28
2022-12-17T01:21:16.191Z,97713.88
2022-12-17T01:25:36.632Z,97719.03
2022-12-17T01:30:08.273Z,97723.31
2022-12-17T01:34:28.944Z,97722.44
2022-12-17T01:38:50.657Z,97721.50
2022-12-17T01:43:11.331Z,97726.63
2022-12-17T01:47:31.859Z,97740.41
2022-12-17T01:51:54.741Z,97741.31
2022-12-17T01:56:17.119Z,97743.88
2022-12-17T02:00:38.842Z,97743.88
2022-12-17T02:04:59.819Z,97747.28
2022-12-17T02:09:29.148Z,97757.44
2022-12-17T02:13:55.080Z,97755.69
2022-12-17T02:18:19.866Z,97762.59
2022-12-17T02:22:51.119Z,97760.72
2022-12-17T02:27:16.801Z,97778.59
2022-12-17T02:31:38.449Z,97779.41
2022-12-17T02:36:04.302Z,97781.06
2022-12-17T02:40:25.501Z,97792.16
2022-12-17T02:44:48.808Z,97793.00
2022-12-17T02:49:09.321Z,97799.88
2022-12-17T02:53:30.600Z,97810.03
2022-12-17T02:57:56.829Z,97819.28
2022-12-17T03:02:19.139Z,97815.78
2022-12-17T03:06:40.010Z,97831.91
2022-12-17T03:11:00.733Z,97831.81
2022-12-17T03:15:22.173Z,97827.63
2022-12-17T03:19:44.573Z,97837.16
2022-12-17T03:24:04.904Z,97840.66
2022-12-17T03:28:27.691Z,97844.88
2022-12-17T03:32:47.882Z,97854.44
2022-12-17T03:37:09.796Z,97853.69
2022-12-17T03:41:30.559Z,97856.28
2022-12-17T03:45:51.496Z,97865.63
2022-12-17T03:50:11.911Z,97859.78
2022-12-17T03:55:19.340Z,97866.75
2022-12-17T03:59:39.795Z,97885.84
2022-12-17T04:04:00.919Z,97887.69
2022-12-17T04:08:21.123Z,97890.53
2022-12-17T04:12:43.305Z,97899.81
2022-12-17T04:17:03.588Z,97891.78
2022-12-17T04:21:24.484Z,97915.41
2022-12-17T04:25:44.916Z,97917.44
2022-12-17T04:30:06.932Z,97923.13
2022-12-17T04:34:27.368Z,97927.53
2022-12-17T04:38:48.171Z,97935.97
2022-12-17T04:43:08.402Z,97936.16
2022-12-17T04:47:30.413Z,97936.16
2022-12-17T04:51:50.528Z,97936.97
2022-12-17T04:56:13.127Z,97948.25
2022-12-17T05:00:33.985Z,97951.94
2022-12-17T05:04:56.560Z,97962.22
2022-12-17T05:09:17.343Z,97973.31
2022-12-17T05:13:38.195Z,97966.09
2022-12-17T05:17:58.750Z,97985.44
2022-12-17T05:22:21.247Z,97986.97
2022-12-17T05:26:43.571Z,97998.91
2022-12-17T05:35:26.824Z,98011.00
2022-12-17T05:39:49.099Z,98018.72
2022-12-17T05:44:09.287Z,98025.50
2022-12-17T05:48:30.116Z,98031.84
2022-12-17T05:52:50.331Z,98041.09
2022-12-17T05:57:12.785Z,98053.13
2022-12-17T06:01:33.193Z,98048.78
2022-12-17T06:05:54.485Z,98053.91
2022-12-17T06:10:15.300Z,98053.13
2022-12-17T06:14:38.713Z,98052.28
2022-12-17T06:18:58.907Z,98057.59
2022-12-17T06:23:23.991Z,98061.28
2022-12-17T06:27:44.571Z,98074.22
2022-12-17T06:32:07.091Z,98078.72
2022-12-17T06:36:27.926Z,98084.94
2022-12-17T06:40:48.590Z,98093.56
2022-12-17T06:45:08.727Z,98104.75
2022-12-17T06:49:30.321Z,98113.44
2022-12-17T06:53:50.855Z,98132.25
2022-12-17T06:58:15.329Z,98133.00
2022-12-17T07:02:36.090Z,98139.75
2022-12-17T07:06:57.875Z,98148.22
2022-12-17T07:11:18.746Z,98160.13
2022-12-17T07:15:39.481Z,98159.94
2022-12-17T07:19:59.550Z,98177.00
2022-12-17T07:24:21.747Z,98171.84
2022-12-17T07:28:42.467Z,98177.75
2022-12-17T07:33:02.881Z,98192.88
2022-12-17T07:37:23.566Z,98189.28
2022-12-17T07:41:46.296Z,98197.69
2022-12-17T07:46:06.264Z,98211.09
2022-12-17T07:50:27.541Z,98200.84
2022-12-17T07:54:47.957Z,98218.72
2022-12-17T07:59:09.638Z,98218.53
2022-12-17T08:03:30.380Z,98215.78
2022-12-17T08:07:51.200Z,98231.03
2022-12-17T08:12:11.694Z,98242.75
2022-12-17T08:16:33.716Z,98243.38
2022-12-17T08:20:54.357Z,98252.59
2022-12-17T08:25:14.932Z,98255.78
2022-12-17T08:29:35.835Z,98269.19
2022-12-17T08:33:57.819Z,98271.47
2022-12-17T08:38:20.716Z,98267.81
2022-12-17T08:42:41.575Z,98273.47
2022-12-17T08:47:02.389Z,98280.09
2022-12-17T08:51:27.297Z,98291.63
2022-12-17T08:55:48.418Z,98302.41
2022-12-17T09:00:09.302Z,98296.88
2022-12-17T09:04:30.311Z,98294.56
2022-12-17T09:08:48.916Z,98302.44
2022-12-17T09:13:09.728Z,98299.31
2022-12-17T09:17:30.321Z,98308.28
2022-12-17T09:21:51.145Z,98304.50
2022-12-17T09:26:14.641Z,98305.91
2022-12-17T09:30:35.591Z,98317.63
2022-12-17T09:34:56.099Z,98315.50
2022-12-17T09:39:17.537Z,98316.28
2022-12-17T09:43:51.557Z,98321.06
2022-12-17T09:48:25.853Z,98327.50
2022-12-17T09:52:53.270Z,98331.78
2022-12-17T09:57:15.759Z,98332.91
2022-12-17T10:01:39.495Z,98331.69
2022-12-17T10:06:01.040Z,98336.75
2022-12-17T10:10:33.623Z,98340.16
2022-12-17T10:15:06.801Z,98345.50
2022-12-17T10:19:33.978Z,98346.75
2022-12-17T10:23:54.411Z,98349.81
2022-12-17T10:28:20.272Z,98350.19
2022-12-17T10:32:43.271Z,98349.59
2022-12-17T10:37:22.813Z,98362.56
2022-12-17T10:41:57.068Z,98375.53
2022-12-17T10:46:17.558Z,98376.44
2022-12-17T10:50:40.526Z,98380.78
2022-12-17T10:55:05.025Z,98382.44
2022-12-17T10:59:31.801Z,98391.50
2022-12-17T11:04:06.128Z,98390.38
2022-12-17T11:08:27.430Z,98400.59
2022-12-17T11:12:57.437Z,98401.13
2022-12-17T11:17:21.620Z,98405.44
2022-12-17T11:21:45.522Z,98415.34
2022-12-17T11:26:15.015Z,98420.03
2022-12-17T11:30:37.722Z,98417.22
2022-12-17T11:35:16.069Z,98416.06
2022-12-17T11:39:51.645Z,98429.66
2022-12-17T11:44:21.790Z,98432.88
2022-12-17T11:48:49.921Z,98423.59
2022-12-17T11:53:29.031Z,98440.22
2022-12-17T11:58:00.185Z,98436.09
2022-12-17T12:02:33.911Z,98442.47
2022-12-17T12:07:11.722Z,98442.53
2022-12-17T12:11:46.016Z,98441.16
2022-12-17T12:16:39.247Z,98445.88
2022-12-17T12:21:28.272Z,98450.28
2022-12-17T12:25:55.874Z,98445.03
2022-12-17T12:30:25.693Z,98450.84
2022-12-17T12:34:50.392Z,98461.56
2022-12-17T12:39:14.538Z,98458.53
2022-12-17T12:43:41.801Z,98460.53
2022-12-17T12:48:12.710Z,98477.16
2022-12-17T12:52:51.297Z,98475.75
2022-12-17T12:57:12.297Z,98474.34
2022-12-17T13:01:34.441Z,98471.91
2022-12-17T13:05:40.627Z,98475.53
2022-12-17T13:09:50.506Z,98483.81
2022-12-17T13:14:00.285Z,98486.50
2022-12-17T13:18:20.547Z,98479.78
2022-12-17T13:22:30.804Z,98491.50
2022-12-17T13:26:45.923Z,98498.81
2022-12-17T13:30:49.566Z,98508.44
2022-12-17T13:35:15.808Z,98507.06
2022-12-17T13:39:33.791Z,98517.84
2022-12-17T13:43:43.832Z,98519.78
2022-12-17T13:47:55.411Z,98523.75
2022-12-17T13:52:11.471Z,98536.31
2022-12-17T13:56:17.106Z,98540.47
2022-12-17T14:00:23.569Z,98529.91
2022-12-17T14:04:28.443Z,98539.38
2022-12-17T14:08:35.436Z,98567.16
2022-12-17T14:12:39.259Z,98567.06
2022-12-17T14:16:50.455Z,98561.81
2022-12-17T14:20:56.937Z,98571.16
2022-12-17T14:25:02.554Z,98568.75
2022-12-17T14:29:20.118Z,98579.47
2022-12-17T14:33:29.041Z,98578.34
2022-12-17T14:37:34.181Z,98584.91
2022-12-17T14:41:58.199Z,98583.59
2022-12-17T14:46:20.056Z,98585.75
2022-12-17T14:50:31.431Z,98586.63
2022-12-17T14:54:34.888Z,98601.13
2022-12-17T14:58:46.934Z,98602.28
2022-12-17T15:02:53.827Z,98606.81
2022-12-17T15:06:58.377Z,98611.63
2022-12-17T15:11:02.272Z,98625.72
2022-12-17T15:15:09.930Z,98621.06
2022-12-17T15:19:13.200Z,98630.00
2022-12-17T15:23:19.540Z,98631.09
2022-12-17T15:27:22.664Z,98636.69
2022-12-17T15:31:35.039Z,98632.22
2022-12-17T15:35:41.011Z,98640.56
2022-12-17T15:39:45.350Z,98650.19
2022-12-17T15:43:48.968Z,98650.34
2022-12-17T15:47:53.460Z,98665.06
2022-12-17T15:51:56.861Z,98667.84
2022-12-17T15:56:01.123Z,98652.25
2022-12-17T16:00:04.545Z,98672.69
2022-12-17T16:04:16.760Z,98673.78
2022-12-17T16:08:21.332Z,98688.53
2022-12-17T16:12:24.319Z,98690.44
2022-12-17T16:16:28.040Z,98688.84
2022-12-17T16:20:32.741Z,98700.31
2022-12-17T16:24:38.574Z,98708.34
2022-12-17T16:28:41.692Z,98705.34
2022-12-17T16:32:45.071Z,98708.28
2022-12-17T16:36:49.733Z,98714.47
2022-12-17T16:40:56.100Z,98715.06
2022-12-17T16:44:59.953Z,98722.00
2022-12-17T16:49:07.475Z,98707.81
2022-12-17T16:53:12.768Z,98714.25
2022-12-17T16:57:16.229Z,98717.44
2022-12-17T17:01:21.156Z,98716.44
2022-12-17T17:05:24.839Z,98727.22
2022-12-17T17:09:29.898Z,98731.22
2022-12-17T17:13:33.483Z,98744.75
2022-12-17T17:17:54.470Z,98746.31
2022-12-17T17:21:59.657Z,98750.47
2022-12-17T17:26:05.258Z,98744.31
2022-12-17T17:30:09.824Z,98752.28
2022-12-17T17:34:15.318Z,98754.09
2022-12-17T17:38:18.944Z,98766.22
2022-12-17T17:42:24.140Z,98768.25
2022-12-17T17:46:29.283Z,98770.16
2022-12-17T17:50:32.743Z,98780.59
2022-12-17T17:54:36.664Z,98774.81
2022-12-17T17:58:41.875Z,98776.59
2022-12-17T18:02:45.482Z,98782.59
2022-12-17T18:07:23.238Z,98783.44
2022-12-17T18:11:21.506Z,98789.41
2022-12-17T18:15:27.271Z,98781.84
2022-12-17T18:19:33.942Z,98782.19
2022-12-17T18:23:38.791Z,98796.22
2022-12-17T18:27:42.762Z,98799.88
2022-12-17T18:31:51.631Z,98801.00
2022-12-17T18:35:55.547Z,98808.00
2022-12-17T18:40:01.563Z,98815.00
2022-12-17T18:44:09.857Z,98822.00
2022-12-17T18:48:14.839Z,98816.34
2022-12-17T18:52:18.252Z,98825.22
2022-12-17T18:56:44.824Z,98829.03
2022-12-17T19:00:46.996Z,98836.22
2022-12-17T19:04:52.232Z,98841.72
2022-12-17T19:08:55.800Z,98841.06
2022-12-17T19:13:03.655Z,98838.56
2022-12-17T19:17:07.115Z,98838.47
2022-12-17T19:21:17.020Z,98845.13
2022-12-17T19:25:20.361Z,98850.13
2022-12-17T19:29:23.876Z,98855.97
2022-12-17T19:33:27.373Z,98861.97
2022-12-17T19:37:32.389Z,98866.44
2022-12-17T19:41:36.240Z,98863.47
2022-12-17T19:45:40.329Z,98868.25
2022-12-17T19:49:43.723Z,98869.63
2022-12-17T19:53:51.912Z,98866.75
2022-12-17T19:57:58.604Z,98864.66
2022-12-17T20:02:04.701Z,98879.47
2022-12-17T20:06:14.992Z,98873.69
2022-12-17T20:14:48.283Z,98902.94
2022-12-17T20:18:59.311Z,98906.47
2022-12-17T20:23:07.231Z,98910.03
2022-12-17T20:27:13.005Z,98905.06
2022-12-17T20:31:25.312Z,98903.44
2022-12-17T20:35:31.156Z,98914.53
2022-12-17T20:39:34.738Z,98917.06
2022-12-17T20:43:49.323Z,98913.72
2022-12-17T20:47:53.330Z,98922.25
2022-12-17T20:52:00.983Z,98921.44
2022-12-17T20:56:07.715Z,98920.75
2022-12-17T21:00:15.116Z,98920.84
2022-12-17T21:04:19.149Z,98922.56
2022-12-17T21:08:24.395Z,98915.75
2022-12-17T21:12:51.365Z,98914.09
2022-12-17T21:16:57.802Z,98922.53
2022-12-17T21:21:04.590Z,98934.53
2022-12-17T21:25:09.371Z,98942.25
2022-12-17T21:29:13.148Z,98943.06
2022-12-17T21:33:18.228Z,98959.13
2022-12-17T21:37:21.433Z,98958.22
2022-12-17T21:41:28.188Z,98957.22
2022-12-17T21:45:37.815Z,98961.50
2022-12-17T21:49:43.029Z,98955.50
2022-12-17T21:53:46.666Z,98959.72
2022-12-17T21:57:50.318Z,98960.56
2022-12-17T22:01:54.349Z,98967.47
2022-12-17T22:05:59.171Z,98965.69
2022-12-17T22:10:16.199Z,98966.63
2022-12-17T22:14:56.480Z,98970.09
2022-12-17T22:19:01.189Z,98970.16
2022-12-17T22:23:06.334Z,98966.91
2022-12-17T22:27:09.955Z,98964.47
2022-12-17T22:31:31.545Z,98973.06
2022-12-17T22:37:28.149Z,98970.63
2022-12-17T22:44:30.450Z,98975.81
2022-12-17T22:44:44.342Z,98977.59
2022-12-17T22:48:48.656Z,98972.63
2022-12-17T22:52:51.828Z,98976.06
2022-12-17T22:57:32.233Z,98973.53
2022-12-17T23:01:23.097Z,98980.34
2022-12-17T23:05:28.512Z,98981.13
2022-12-17T23:09:31.857Z,98984.56
2022-12-17T23:13:37.278Z,98985.63
2022-12-17T23:17:40.751Z,98984.25
2022-12-17T23:21:45.646Z,98984.75
2022-12-17T23:25:49.174Z,98982.78
2022-12-17T23:29:54.452Z,98991.00
2022-12-17T23:33:57.527Z,98992.41
2022-12-17T23:38:01.129Z,98997.91
2022-12-17T23:42:04.392Z,98992.25
2022-12-17T23:46:09.898Z,98999.13
2022-12-17T23:50:13.291Z,99000.88
2022-12-17T23:54:16.907Z,99004.22
2022-12-17T23:58:20.001Z,98993.09
